Impacts METAR Board
IDs:

KDCA - Washington/National, VA, US

Updated at: 0100 UTC 25 May 2018
Potential Impact None Slight Moderate High
Time 24/13Z 24/14Z 24/15Z 24/16Z 24/17Z 24/18Z 24/19Z 24/20Z 24/21Z 24/22Z 24/23Z 25/00Z 25/01Z
Temp73 77 79 81 82 84 85 86 86 82 81 75 74
Dewpt57 52 49 50 53 48 44 44 41 52 52 58 56
Altim30.19 30.19 30.19 30.19 30.19 30.17 30.16 30.14 30.13 30.11 30.11 30.12 30.13
VIS10 10 10 10 10 10 10 10 10 10 10 10 10
CIG-- -- -- -- -- -- -- -- -- -- -- -- --
CoverCLRCLRCLRCLRCLRCLRCLRCLRCLRCLRCLRCLRFEW
FltCatVFRVFRVFRVFRVFRVFRVFRVFRVFRVFRVFRVFRVFR
WX--------------------------
WDir34036040206000090170180160160
WSpd8 7 4 7 7 3 0 0 3 6 7 8 4
WGst-- -- -- -- -- -- -- -- -- -- -- -- --
Raw hourly METARs
KDCA 241252Z 34008KT 10SM CLR 23/14 A3019 RMK AO2 SLP222 T02280139
KDCA 241352Z 36007KT 10SM CLR 25/11 A3019 RMK AO2 SLP223 T02500111
KDCA 241452Z 04004KT 10SM CLR 26/09 A3019 RMK AO2 SLP222 T02610094 50001
KDCA 241552Z 02007KT 10SM CLR 27/10 A3019 RMK AO2 SLP224 T02720100
KDCA 241652Z 06007KT 10SM CLR 28/12 A3019 RMK AO2 SLP222 T02780117
KDCA 241752Z VRB03KT 10SM CLR 29/09 A3017 RMK AO2 SLP217 T02890089 10289 20206 58005
KDCA 241852Z 00000KT 10SM CLR 29/07 A3016 RMK AO2 SLP212 T02940067
KDCA 241952Z 00000KT 10SM CLR 30/07 A3014 RMK AO2 SLP207 T03000067
KDCA 242052Z 09003KT 10SM CLR 30/05 A3013 RMK AO2 SLP202 T03000050 57016 $
KDCA 242152Z 17006KT 10SM CLR 28/11 A3011 RMK AO2 SLP197 T02780111 $
KDCA 242252Z 18007KT 10SM CLR 27/11 A3011 RMK AO2 SLP195 T02720111 $
KDCA 242352Z 16008KT 10SM CLR 24/14 A3012 RMK AO2 SLP198 T02390144 10306 20239 55004 $
KDCA 250052Z 16004KT 10SM FEW250 23/13 A3013 RMK AO2 SLP202 T02330133 $



Page loaded:  01:32 UTC  |   06:32 PM Pacific  |   07:32 PM Mountain  |   08:32 PM Central  |   09:32 PM Eastern

 

ADVISORIES

FORECASTS

FORECASTS

OBSERVATIONS

USER TOOLS

ABOUT US